createdAt,value
2022-11-23T00:00:12.087Z,16.76
2022-11-23T00:00:34.070Z,16.75
2022-11-23T00:00:55.696Z,16.77
2022-11-23T00:01:20.526Z,16.77
2022-11-23T00:01:42.120Z,16.79
2022-11-23T00:02:03.851Z,16.80
2022-11-23T00:02:25.513Z,16.83
2022-11-23T00:02:48.142Z,16.83
2022-11-23T00:03:14.666Z,16.86
2022-11-23T00:03:36.304Z,16.88
2022-11-23T00:04:00.927Z,16.89
2022-11-23T00:04:24.925Z,16.81
2022-11-23T00:04:46.563Z,16.77
2022-11-23T00:05:08.842Z,16.78
2022-11-23T00:05:31.189Z,16.78
2022-11-23T00:05:53.850Z,16.83
2022-11-23T00:06:16.255Z,16.83
2022-11-23T00:06:38.397Z,16.87
2022-11-23T00:07:00.970Z,16.86
2022-11-23T00:07:22.623Z,16.84
2022-11-23T00:07:44.335Z,16.89
2022-11-23T00:08:06.340Z,16.87
2022-11-23T00:08:27.914Z,16.90
2022-11-23T00:08:51.357Z,16.90
2022-11-23T00:09:13.004Z,16.90
2022-11-23T00:09:34.571Z,16.93
2022-11-23T00:09:56.161Z,16.93
2022-11-23T00:10:18.406Z,16.94
2022-11-23T00:10:40.983Z,16.94
2022-11-23T00:11:02.691Z,16.96
2022-11-23T00:11:25.688Z,16.96
2022-11-23T00:11:48.243Z,16.98
2022-11-23T00:12:09.951Z,16.99
2022-11-23T00:12:33.243Z,16.99
2022-11-23T00:12:54.857Z,16.97
2022-11-23T00:13:16.455Z,16.84
2022-11-23T00:13:40.474Z,16.83
2022-11-23T00:14:02.429Z,16.89
2022-11-23T00:14:24.089Z,16.91
2022-11-23T00:14:45.683Z,16.92
2022-11-23T00:15:09.007Z,16.92
2022-11-23T00:15:30.630Z,16.91
2022-11-23T00:15:52.276Z,16.93
2022-11-23T00:16:15.650Z,16.94
2022-11-23T00:16:38.346Z,16.93
2022-11-23T00:17:00.106Z,16.91
2022-11-23T00:17:21.864Z,16.96
2022-11-23T00:17:43.475Z,16.97
2022-11-23T00:18:05.417Z,16.99
2022-11-23T00:18:27.282Z,16.98
2022-11-23T00:18:51.345Z,17.01
2022-11-23T00:19:12.918Z,16.97
2022-11-23T00:19:34.623Z,16.93
2022-11-23T00:19:56.267Z,16.92
2022-11-23T00:20:18.928Z,16.95
2022-11-23T00:20:40.652Z,17.01
2022-11-23T00:21:06.748Z,17.01
2022-11-23T00:21:30.830Z,17.03
2022-11-23T00:21:52.415Z,17.03
2022-11-23T00:22:13.986Z,17.04
2022-11-23T00:22:35.875Z,16.99
2022-11-23T00:22:57.546Z,17.03
2022-11-23T00:23:20.075Z,17.03
2022-11-23T00:23:42.631Z,16.97
2022-11-23T00:24:04.918Z,16.98
2022-11-23T00:24:27.514Z,16.97
2022-11-23T00:24:49.302Z,16.96
2022-11-23T00:25:10.927Z,16.97
2022-11-23T00:25:32.486Z,16.99
2022-11-23T00:25:54.078Z,16.97
2022-11-23T00:26:17.815Z,16.95
2022-11-23T00:26:39.444Z,16.99
2022-11-23T00:27:01.067Z,16.99
2022-11-23T00:27:22.732Z,16.98
2022-11-23T00:27:46.594Z,16.98
2022-11-23T00:28:08.193Z,17.00
2022-11-23T00:28:30.054Z,16.96
2022-11-23T00:28:52.812Z,16.97
2022-11-23T00:29:14.450Z,16.97
2022-11-23T00:29:36.049Z,16.98
2022-11-23T00:29:57.670Z,16.83
2022-11-23T00:30:20.228Z,16.84
2022-11-23T00:30:42.765Z,16.86
2022-11-23T00:31:04.678Z,16.82
2022-11-23T00:31:26.315Z,16.83
2022-11-23T00:31:47.959Z,16.84
2022-11-23T00:32:10.551Z,16.80
2022-11-23T00:32:32.335Z,16.71
2022-11-23T00:32:54.772Z,16.72
2022-11-23T00:33:16.508Z,16.74
2022-11-23T00:33:38.220Z,16.74
2022-11-23T00:34:00.839Z,16.80
2022-11-23T00:34:22.681Z,16.82
2022-11-23T00:34:45.858Z,16.84
2022-11-23T00:35:08.210Z,16.85
2022-11-23T00:35:30.747Z,16.75
2022-11-23T00:35:59.499Z,16.79
2022-11-23T00:36:22.226Z,16.80
2022-11-23T00:36:44.857Z,16.84
2022-11-23T00:37:06.523Z,16.76
2022-11-23T00:37:28.193Z,16.81
2022-11-23T00:37:49.871Z,16.83
2022-11-23T00:38:11.580Z,16.87
2022-11-23T00:38:34.486Z,16.90
2022-11-23T00:38:57.615Z,16.84
2022-11-23T00:39:19.338Z,16.86
2022-11-23T00:39:41.951Z,16.87
2022-11-23T00:40:04.341Z,16.74
2022-11-23T00:40:25.946Z,16.79
2022-11-23T00:40:47.571Z,16.85
2022-11-23T00:41:12.217Z,16.87
2022-11-23T00:41:34.779Z,16.87
2022-11-23T00:41:57.384Z,16.89
2022-11-23T00:42:19.029Z,16.85
2022-11-23T00:42:40.642Z,16.88
2022-11-23T00:43:03.714Z,16.92
2022-11-23T00:43:27.010Z,16.89
2022-11-23T00:43:48.922Z,16.82
2022-11-23T00:44:10.804Z,16.80
2022-11-23T00:44:32.418Z,16.76
2022-11-23T00:44:54.995Z,16.81
2022-11-23T00:45:16.892Z,16.78
2022-11-23T00:45:38.484Z,16.73
2022-11-23T00:46:07.990Z,16.76
2022-11-23T00:46:30.593Z,16.79
2022-11-23T00:46:52.215Z,16.79
2022-11-23T00:47:15.275Z,16.71
2022-11-23T00:47:37.229Z,16.74
2022-11-23T00:48:00.076Z,16.75
2022-11-23T00:48:22.646Z,16.71
2022-11-23T00:48:47.873Z,16.74
2022-11-23T00:49:10.012Z,16.76
2022-11-23T00:49:31.892Z,16.76
2022-11-23T00:49:54.651Z,16.58
2022-11-23T00:50:16.908Z,16.62
2022-11-23T00:50:38.470Z,16.64
2022-11-23T00:51:00.863Z,16.54
2022-11-23T00:51:26.490Z,16.60
2022-11-23T00:51:48.162Z,16.64
2022-11-23T00:52:09.760Z,16.68
2022-11-23T00:52:31.484Z,16.69
2022-11-23T00:52:53.095Z,16.71
2022-11-23T00:53:15.650Z,16.75
2022-11-23T00:53:37.988Z,16.76
2022-11-23T00:54:00.664Z,16.79
2022-11-23T00:54:22.257Z,16.83
2022-11-23T00:54:44.841Z,16.88
2022-11-23T00:55:07.209Z,16.90
2022-11-23T00:55:28.812Z,16.92
2022-11-23T00:55:51.711Z,16.84
2022-11-23T00:56:15.046Z,16.90
2022-11-23T00:56:36.630Z,16.91
2022-11-23T00:56:58.243Z,16.90
2022-11-23T00:57:20.660Z,16.91
2022-11-23T00:57:42.241Z,16.93
2022-11-23T00:58:06.240Z,16.92
2022-11-23T00:58:28.639Z,16.97
2022-11-23T00:58:50.750Z,16.89
2022-11-23T00:59:13.552Z,16.92
2022-11-23T00:59:35.122Z,16.93
2022-11-23T00:59:56.710Z,16.95
2022-11-23T01:00:20.045Z,16.95
2022-11-23T01:00:41.698Z,16.96
2022-11-23T01:01:06.860Z,16.99
2022-11-23T01:01:33.612Z,16.99
2022-11-23T01:01:55.430Z,17.03
2022-11-23T01:02:17.095Z,17.05
2022-11-23T01:02:39.681Z,17.05
2022-11-23T01:03:01.324Z,17.05
2022-11-23T01:03:23.518Z,17.04
2022-11-23T01:03:49.592Z,17.05
2022-11-23T01:04:11.263Z,17.06
2022-11-23T01:04:32.949Z,17.02
2022-11-23T01:04:54.796Z,17.03
2022-11-23T01:05:16.432Z,17.04
2022-11-23T01:05:39.551Z,17.02
2022-11-23T01:06:09.437Z,17.04
2022-11-23T01:06:32.864Z,17.04
2022-11-23T01:06:57.268Z,17.05
2022-11-23T01:07:18.913Z,17.06
2022-11-23T01:07:40.556Z,17.06
2022-11-23T01:08:02.799Z,17.06
2022-11-23T01:08:25.765Z,16.97
2022-11-23T01:08:50.713Z,16.96
2022-11-23T01:09:14.596Z,16.97
2022-11-23T01:09:36.188Z,16.95
2022-11-23T01:09:57.896Z,16.97
2022-11-23T01:10:19.475Z,16.99
2022-11-23T01:10:42.062Z,16.99
2022-11-23T01:11:05.973Z,16.92
2022-11-23T01:11:31.283Z,16.91
2022-11-23T01:11:53.711Z,16.94
2022-11-23T01:12:22.019Z,16.94
2022-11-23T01:12:43.612Z,16.96
2022-11-23T01:13:06.614Z,16.90
2022-11-23T01:13:28.608Z,16.90
2022-11-23T01:13:51.274Z,16.88
2022-11-23T01:14:13.253Z,16.89
2022-11-23T01:14:35.200Z,16.91
2022-11-23T01:14:59.640Z,16.78
2022-11-23T01:15:23.749Z,16.71
2022-11-23T01:15:50.638Z,16.76
2022-11-23T01:16:22.261Z,16.78
2022-11-23T01:16:46.458Z,16.79
2022-11-23T01:17:08.057Z,16.79
2022-11-23T01:17:29.937Z,16.77
2022-11-23T01:17:51.579Z,16.83
2022-11-23T01:18:14.194Z,16.85
2022-11-23T01:18:35.819Z,16.86
2022-11-23T01:18:59.510Z,16.87
2022-11-23T01:19:21.348Z,16.84
2022-11-23T01:19:44.381Z,16.83
2022-11-23T01:20:10.373Z,16.88
2022-11-23T01:20:34.836Z,16.85
2022-11-23T01:20:56.444Z,16.92
2022-11-23T01:21:18.015Z,16.92
2022-11-23T01:21:40.915Z,16.98
2022-11-23T01:22:02.555Z,16.99
2022-11-23T01:22:24.245Z,17.00
2022-11-23T01:22:45.851Z,17.02
2022-11-23T01:23:07.421Z,17.00
2022-11-23T01:23:30.143Z,16.76
2022-11-23T01:23:52.200Z,16.79
2022-11-23T01:24:16.775Z,16.80
2022-11-23T01:24:39.370Z,16.84
2022-11-23T01:25:04.745Z,16.86
2022-11-23T01:25:26.385Z,16.87
2022-11-23T01:25:50.895Z,16.89
2022-11-23T01:26:17.876Z,16.89
2022-11-23T01:26:39.808Z,16.93
2022-11-23T01:27:01.406Z,16.96
2022-11-23T01:27:23.562Z,16.94
2022-11-23T01:27:46.569Z,16.94
2022-11-23T01:28:10.523Z,16.92
2022-11-23T01:28:32.127Z,16.93
2022-11-23T01:28:53.705Z,16.91
2022-11-23T01:29:19.657Z,16.95
2022-11-23T01:29:41.293Z,16.97
2022-11-23T01:30:03.138Z,16.97
2022-11-23T01:30:27.260Z,16.97
2022-11-23T01:30:49.873Z,16.95
2022-11-23T01:31:14.034Z,16.94
2022-11-23T01:31:35.778Z,16.97
2022-11-23T01:31:57.357Z,16.97
2022-11-23T01:32:19.979Z,16.95
2022-11-23T01:32:41.603Z,16.97
2022-11-23T01:33:03.830Z,16.95
2022-11-23T01:33:25.392Z,16.92
2022-11-23T01:33:48.784Z,16.77
2022-11-23T01:34:11.687Z,16.76
2022-11-23T01:35:09.514Z,16.88
2022-11-23T01:35:32.303Z,16.93
2022-11-23T01:35:53.908Z,16.95
2022-11-23T01:36:17.450Z,16.91
2022-11-23T01:36:40.018Z,16.91
2022-11-23T01:37:01.664Z,16.86
2022-11-23T01:37:23.248Z,16.86
2022-11-23T01:37:46.402Z,16.89
2022-11-23T01:38:16.670Z,16.91
2022-11-23T01:38:39.823Z,16.85
2022-11-23T01:39:03.815Z,16.86
2022-11-23T01:39:25.529Z,16.88
2022-11-23T01:39:48.262Z,16.86
2022-11-23T01:40:12.118Z,16.87
2022-11-23T01:40:40.158Z,16.86
2022-11-23T01:41:01.819Z,16.91
2022-11-23T01:41:25.148Z,16.92
2022-11-23T01:41:46.898Z,16.90
2022-11-23T01:42:11.824Z,16.89
2022-11-23T01:42:43.299Z,16.94
2022-11-23T01:43:07.092Z,16.95
2022-11-23T01:43:30.024Z,16.94
2022-11-23T01:43:53.081Z,16.94
2022-11-23T01:44:26.519Z,16.95
2022-11-23T01:44:48.907Z,16.97
2022-11-23T01:45:34.454Z,16.92
2022-11-23T01:45:57.338Z,16.96
2022-11-23T01:46:19.396Z,16.95
2022-11-23T01:46:42.016Z,16.96
2022-11-23T01:47:05.949Z,16.97
2022-11-23T01:47:28.028Z,16.97
2022-11-23T01:47:49.637Z,16.98
2022-11-23T01:48:16.612Z,16.97
2022-11-23T01:48:43.267Z,16.92
2022-11-23T01:49:07.610Z,16.97
2022-11-23T01:49:33.623Z,16.94
2022-11-23T01:49:55.891Z,16.86
2022-11-23T01:50:17.615Z,16.89
2022-11-23T01:50:40.970Z,16.93
2022-11-23T01:51:04.924Z,16.96
2022-11-23T01:51:30.495Z,16.98
2022-11-23T01:51:56.804Z,16.98
2022-11-23T01:52:23.776Z,16.91
2022-11-23T01:52:45.430Z,17.03
2022-11-23T01:53:07.086Z,17.04
2022-11-23T01:53:30.040Z,17.05
2022-11-23T01:53:58.367Z,17.07
2022-11-23T01:54:24.639Z,17.07
2022-11-23T01:54:49.246Z,17.11
2022-11-23T01:55:11.087Z,17.06
2022-11-23T01:55:33.317Z,17.08
2022-11-23T01:56:00.208Z,16.99
2022-11-23T01:56:28.656Z,17.05
2022-11-23T01:56:53.766Z,17.04
2022-11-23T01:57:21.015Z,17.05
2022-11-23T01:57:45.526Z,17.05
2022-11-23T01:58:09.080Z,17.05
2022-11-23T01:58:36.147Z,17.08
2022-11-23T01:59:05.355Z,17.08
2022-11-23T01:59:28.656Z,17.09
2022-11-23T02:00:15.166Z,17.10
2022-11-23T02:00:38.747Z,17.07
2022-11-23T02:01:03.250Z,17.12
2022-11-23T02:01:24.963Z,17.12
2022-11-23T02:01:46.654Z,17.13
2022-11-23T02:02:08.383Z,17.17
2022-11-23T02:02:33.687Z,17.17
2022-11-23T02:02:58.474Z,17.11
2022-11-23T02:03:20.162Z,17.12
2022-11-23T02:03:43.490Z,17.05
2022-11-23T02:04:09.510Z,17.05
2022-11-23T02:04:33.944Z,17.03
2022-11-23T02:04:57.533Z,17.01
2022-11-23T02:05:22.308Z,17.03
2022-11-23T02:05:47.638Z,16.97
2022-11-23T02:06:13.685Z,16.91
2022-11-23T02:06:35.382Z,17.02
2022-11-23T02:07:00.623Z,17.04
2022-11-23T02:07:24.012Z,17.07
2022-11-23T02:07:48.016Z,17.03
2022-11-23T02:08:11.710Z,16.95
2022-11-23T02:08:34.382Z,16.96
2022-11-23T02:08:58.551Z,16.98
2022-11-23T02:09:22.570Z,16.97
2022-11-23T02:09:46.603Z,16.94
2022-11-23T02:10:09.018Z,16.89
2022-11-23T02:10:32.590Z,16.90
2022-11-23T02:10:55.723Z,16.93
2022-11-23T02:11:19.831Z,16.90
2022-11-23T02:11:42.998Z,16.94
2022-11-23T02:12:12.391Z,16.98
2022-11-23T02:12:34.125Z,17.00
2022-11-23T02:12:55.849Z,17.01
2022-11-23T02:13:17.623Z,17.03
2022-11-23T02:13:44.778Z,17.01
2022-11-23T02:14:07.430Z,17.05
2022-11-23T02:14:29.288Z,17.08
2022-11-23T02:14:51.051Z,17.10
2022-11-23T02:15:14.204Z,17.08
2022-11-23T02:15:37.500Z,17.06
2022-11-23T02:15:59.588Z,17.07
2022-11-23T02:16:21.147Z,17.02
2022-11-23T02:16:42.806Z,16.95
2022-11-23T02:17:05.052Z,16.98
2022-11-23T02:17:27.617Z,17.00
2022-11-23T02:17:49.302Z,17.00
2022-11-23T02:18:15.782Z,16.96
2022-11-23T02:18:41.483Z,16.96
2022-11-23T02:19:09.466Z,16.99
2022-11-23T02:19:41.635Z,16.99
2022-11-23T02:20:08.632Z,17.02
2022-11-23T02:20:31.839Z,17.05
2022-11-23T02:20:54.344Z,17.08
2022-11-23T02:21:16.200Z,16.96
2022-11-23T02:21:43.131Z,17.10
2022-11-23T02:22:13.543Z,17.12
2022-11-23T02:22:42.180Z,17.11
2022-11-23T02:23:16.387Z,17.02
2022-11-23T02:23:47.445Z,16.92
2022-11-23T02:24:15.446Z,16.93
2022-11-23T02:24:45.393Z,16.91
2022-11-23T02:25:13.451Z,16.93
2022-11-23T02:25:44.442Z,16.94
2022-11-23T02:26:10.455Z,16.92
2022-11-23T02:26:35.636Z,16.94
2022-11-23T02:27:01.925Z,16.96
2022-11-23T02:27:23.998Z,16.98
2022-11-23T02:27:47.207Z,16.99
2022-11-23T02:28:10.174Z,17.03
2022-11-23T02:28:38.786Z,17.02
2022-11-23T02:29:05.855Z,16.99
2022-11-23T02:29:28.822Z,16.90
2022-11-23T02:29:58.925Z,16.90
2022-11-23T02:30:20.615Z,16.90
2022-11-23T02:30:44.464Z,16.89
2022-11-23T02:31:06.042Z,16.76
2022-11-23T02:31:28.666Z,16.65
2022-11-23T02:31:50.562Z,16.71
2022-11-23T02:32:12.542Z,16.76
2022-11-23T02:32:34.754Z,16.78
2022-11-23T02:32:57.927Z,16.79
2022-11-23T02:33:20.052Z,16.84
2022-11-23T02:33:43.284Z,16.80
2022-11-23T02:34:05.814Z,16.67
2022-11-23T02:34:28.531Z,16.53
2022-11-23T02:34:50.247Z,16.59
2022-11-23T02:35:12.355Z,16.50
2022-11-23T02:35:35.725Z,16.58
2022-11-23T02:35:59.057Z,16.55
2022-11-23T02:36:39.091Z,16.66
2022-11-23T02:37:02.283Z,16.64
2022-11-23T02:37:25.446Z,16.69
2022-11-23T02:37:48.985Z,16.70
2022-11-23T02:38:11.367Z,16.75
2022-11-23T02:38:34.037Z,16.79
2022-11-23T02:39:00.610Z,16.78
2022-11-23T02:39:30.395Z,16.85
2022-11-23T02:39:54.382Z,16.86
2022-11-23T02:40:25.910Z,16.70
2022-11-23T02:40:48.850Z,16.77
2022-11-23T02:41:11.789Z,16.81
2022-11-23T02:41:35.882Z,16.87
2022-11-23T02:41:58.471Z,16.79
2022-11-23T02:42:21.463Z,16.87
2022-11-23T02:42:44.712Z,16.89
2022-11-23T02:43:06.342Z,16.91
2022-11-23T02:43:27.998Z,16.95
2022-11-23T02:43:54.912Z,16.94
2022-11-23T02:44:37.359Z,16.99
2022-11-23T02:45:08.685Z,17.00
2022-11-23T02:45:37.829Z,17.02
2022-11-23T02:46:03.433Z,16.99
2022-11-23T02:46:25.979Z,16.97
2022-11-23T02:46:47.993Z,17.01
2022-11-23T02:47:11.034Z,17.01
2022-11-23T02:47:33.666Z,17.03
2022-11-23T02:47:56.591Z,17.06
2022-11-23T02:48:19.248Z,17.05
2022-11-23T02:48:40.822Z,17.05
2022-11-23T02:49:02.427Z,17.07
2022-11-23T02:49:24.028Z,17.09
2022-11-23T02:49:49.299Z,17.09
2022-11-23T02:50:10.867Z,17.10
2022-11-23T02:50:32.945Z,17.11
2022-11-23T02:50:55.592Z,17.11
2022-11-23T02:51:19.960Z,17.13
2022-11-23T02:51:41.592Z,17.11
2022-11-23T02:52:04.122Z,17.11
2022-11-23T02:52:25.738Z,17.01
2022-11-23T02:52:48.251Z,17.02
2022-11-23T02:53:11.010Z,17.03
2022-11-23T02:53:32.907Z,17.00
2022-11-23T02:53:54.509Z,17.00
2022-11-23T02:54:17.082Z,17.02
2022-11-23T02:54:38.756Z,17.01
2022-11-23T02:55:00.313Z,17.02
2022-11-23T02:55:21.924Z,17.06
2022-11-23T02:55:44.530Z,17.08
2022-11-23T02:56:06.406Z,17.05
2022-11-23T02:56:29.387Z,17.05
2022-11-23T02:56:50.975Z,17.08
2022-11-23T02:57:14.679Z,17.06
2022-11-23T02:57:40.169Z,17.06
2022-11-23T02:58:06.065Z,17.04
2022-11-23T02:58:28.646Z,17.06
2022-11-23T02:58:50.239Z,17.06
2022-11-23T02:59:12.860Z,17.06
2022-11-23T02:59:37.943Z,17.09
2022-11-23T03:00:02.025Z,17.07
2022-11-23T03:00:24.534Z,17.07
2022-11-23T03:00:46.203Z,17.10
2022-11-23T03:01:07.918Z,17.09
2022-11-23T03:01:30.883Z,17.06
2022-11-23T03:01:52.671Z,17.09
2022-11-23T03:02:14.304Z,17.09
2022-11-23T03:02:35.962Z,17.08
2022-11-23T03:02:59.783Z,17.07
2022-11-23T03:03:21.351Z,17.10
2022-11-23T03:03:42.918Z,17.12
2022-11-23T03:04:04.726Z,17.08
2022-11-23T03:04:28.135Z,17.07
2022-11-23T03:04:50.913Z,17.10
2022-11-23T03:05:15.040Z,17.08
2022-11-23T03:05:36.870Z,17.06
2022-11-23T03:06:01.563Z,16.97
2022-11-23T03:06:23.236Z,17.02
2022-11-23T03:06:45.056Z,16.97
2022-11-23T03:07:07.714Z,16.96
2022-11-23T03:07:29.957Z,16.92
2022-11-23T03:07:54.538Z,16.94
2022-11-23T03:08:16.163Z,16.96
2022-11-23T03:08:37.760Z,16.93
2022-11-23T03:08:59.331Z,16.95
2022-11-23T03:09:21.070Z,16.96
2022-11-23T03:09:43.667Z,17.00
2022-11-23T03:10:06.484Z,16.99
2022-11-23T03:10:28.185Z,17.04
2022-11-23T03:10:50.607Z,17.00
2022-11-23T03:11:14.007Z,17.06
2022-11-23T03:11:37.330Z,17.06
2022-11-23T03:11:58.927Z,17.03
2022-11-23T03:12:22.572Z,17.04
2022-11-23T03:12:45.199Z,17.07
2022-11-23T03:13:08.554Z,17.06
2022-11-23T03:13:32.302Z,17.09
2022-11-23T03:13:55.529Z,17.08
2022-11-23T03:14:18.672Z,17.10
2022-11-23T03:14:48.085Z,17.08
2022-11-23T03:15:10.448Z,17.05
2022-11-23T03:15:36.572Z,17.04
2022-11-23T03:15:59.843Z,17.02
2022-11-23T03:16:22.270Z,17.02
2022-11-23T03:16:43.891Z,17.05
2022-11-23T03:17:06.745Z,17.04
2022-11-23T03:17:33.057Z,17.07
2022-11-23T03:17:56.805Z,17.03
2022-11-23T03:18:18.555Z,16.99
2022-11-23T03:18:41.249Z,16.95
2022-11-23T03:19:04.187Z,16.94
2022-11-23T03:19:26.896Z,16.96
2022-11-23T03:19:48.911Z,16.95
2022-11-23T03:20:12.494Z,16.97
2022-11-23T03:20:37.635Z,16.99
2022-11-23T03:21:02.688Z,16.96
2022-11-23T03:21:24.275Z,16.99
2022-11-23T03:21:46.882Z,16.99
2022-11-23T03:22:08.715Z,17.00
2022-11-23T03:22:30.413Z,17.00
2022-11-23T03:22:52.235Z,16.98
2022-11-23T03:23:16.446Z,17.01
2022-11-23T03:23:38.987Z,17.02
2022-11-23T03:24:02.582Z,17.05
2022-11-23T03:24:24.193Z,17.06
2022-11-23T03:24:47.365Z,17.08
2022-11-23T03:25:12.276Z,17.07
2022-11-23T03:25:34.667Z,17.09
2022-11-23T03:25:56.894Z,17.04
2022-11-23T03:26:19.574Z,17.04
2022-11-23T03:26:51.181Z,17.05
2022-11-23T03:27:15.795Z,17.03
2022-11-23T03:27:38.756Z,17.01
2022-11-23T03:28:00.446Z,16.99
2022-11-23T03:28:22.593Z,16.98
2022-11-23T03:28:45.517Z,16.97
2022-11-23T03:29:08.091Z,17.01
2022-11-23T03:29:30.244Z,17.05
2022-11-23T03:29:54.299Z,17.04
2022-11-23T03:30:17.248Z,17.04
2022-11-23T03:30:38.890Z,17.05
2022-11-23T03:31:01.727Z,17.00
2022-11-23T03:31:23.502Z,17.01
2022-11-23T03:31:45.194Z,17.03
2022-11-23T03:32:10.563Z,17.02
2022-11-23T03:32:33.071Z,17.02
2022-11-23T03:32:54.711Z,17.05
2022-11-23T03:33:16.591Z,17.05
2022-11-23T03:33:39.535Z,17.02
2022-11-23T03:34:01.259Z,17.01
2022-11-23T03:34:25.626Z,16.99
2022-11-23T03:34:47.267Z,17.04
2022-11-23T03:35:11.480Z,17.04
2022-11-23T03:35:48.690Z,17.02
2022-11-23T03:36:20.607Z,16.99
2022-11-23T03:36:44.131Z,16.98
2022-11-23T03:37:05.734Z,17.00
2022-11-23T03:37:27.426Z,16.99
2022-11-23T03:37:50.025Z,17.01
2022-11-23T03:38:11.874Z,17.01
2022-11-23T03:38:33.515Z,16.94
2022-11-23T03:38:55.335Z,16.89
2022-11-23T03:39:34.464Z,16.91
2022-11-23T03:40:06.242Z,16.94
2022-11-23T03:40:46.580Z,16.95
2022-11-23T03:41:18.734Z,16.94
2022-11-23T03:41:45.617Z,16.94
2022-11-23T03:42:09.094Z,16.94
2022-11-23T03:42:32.046Z,16.87
2022-11-23T03:42:53.692Z,16.86
2022-11-23T03:43:16.260Z,16.82
2022-11-23T03:43:37.880Z,16.83
2022-11-23T03:43:59.683Z,16.86
2022-11-23T03:44:23.062Z,16.88
2022-11-23T03:44:44.738Z,16.86
2022-11-23T03:45:07.899Z,16.84
2022-11-23T03:45:29.554Z,16.88
2022-11-23T03:45:51.395Z,16.90
2022-11-23T03:46:14.307Z,16.92
2022-11-23T03:46:35.906Z,16.94
2022-11-23T03:46:57.563Z,16.96
2022-11-23T03:47:19.991Z,16.99
2022-11-23T03:47:42.641Z,17.02
2022-11-23T03:48:04.362Z,16.98
2022-11-23T03:48:25.986Z,17.01
2022-11-23T03:48:47.809Z,17.04
2022-11-23T03:49:10.482Z,17.04
2022-11-23T03:49:32.397Z,17.03
2022-11-23T03:49:54.411Z,17.05
2022-11-23T03:50:16.092Z,17.01
2022-11-23T03:50:38.704Z,17.06
2022-11-23T03:51:00.307Z,17.01
2022-11-23T03:51:22.983Z,17.03
2022-11-23T03:51:44.673Z,17.03
2022-11-23T03:52:06.302Z,17.03
2022-11-23T03:52:28.881Z,17.05
2022-11-23T03:52:50.703Z,17.08
2022-11-23T03:53:12.763Z,17.09
2022-11-23T03:53:34.819Z,17.11
2022-11-23T03:53:56.443Z,17.12
2022-11-23T03:54:19.051Z,17.13
2022-11-23T03:54:40.723Z,17.12
2022-11-23T03:55:02.385Z,17.14
2022-11-23T03:55:24.078Z,17.11
2022-11-23T03:55:48.189Z,17.13
2022-11-23T03:56:10.743Z,17.08
2022-11-23T03:56:36.733Z,17.08
2022-11-23T03:56:58.647Z,17.08
2022-11-23T03:57:22.580Z,17.08
2022-11-23T03:57:44.232Z,17.07
2022-11-23T03:58:05.957Z,17.07
2022-11-23T03:58:30.298Z,17.07
2022-11-23T03:58:53.578Z,17.09
2022-11-23T03:59:15.198Z,17.10
2022-11-23T03:59:37.123Z,17.14
2022-11-23T03:59:59.438Z,17.14
2022-11-23T04:00:21.798Z,17.10
2022-11-23T04:00:44.728Z,17.09
2022-11-23T04:01:09.112Z,17.05
2022-11-23T04:01:31.445Z,17.07
2022-11-23T04:01:57.446Z,17.07
2022-11-23T04:02:23.487Z,17.07
2022-11-23T04:02:55.613Z,17.07
2022-11-23T04:03:56.642Z,16.98
2022-11-23T04:04:44.058Z,16.93
2022-11-23T04:05:44.611Z,16.94
2022-11-23T04:06:24.525Z,17.00
2022-11-23T04:06:55.746Z,17.04
2022-11-23T04:07:22.672Z,17.03
2022-11-23T04:07:49.569Z,17.05
2022-11-23T04:08:11.282Z,17.01
2022-11-23T04:08:32.967Z,17.05
2022-11-23T04:09:01.519Z,16.98
2022-11-23T04:09:43.946Z,17.05
2022-11-23T04:10:19.759Z,17.06
2022-11-23T04:11:01.616Z,17.01
2022-11-23T04:11:31.610Z,16.98
2022-11-23T04:11:54.245Z,16.94
2022-11-23T04:12:15.877Z,16.99
2022-11-23T04:12:39.470Z,16.91
2022-11-23T04:13:02.724Z,16.91
2022-11-23T04:13:26.309Z,16.95
2022-11-23T04:13:48.156Z,16.97
2022-11-23T04:14:09.836Z,17.01
2022-11-23T04:14:31.514Z,17.02
2022-11-23T04:14:55.548Z,17.06
2022-11-23T04:15:17.319Z,17.02
2022-11-23T04:15:39.059Z,17.08
2022-11-23T04:16:00.648Z,17.08
2022-11-23T04:16:23.197Z,17.05
2022-11-23T04:16:45.091Z,17.10
2022-11-23T04:17:06.803Z,17.10
2022-11-23T04:17:28.425Z,17.11
2022-11-23T04:17:50.319Z,17.12
2022-11-23T04:18:12.929Z,17.10
2022-11-23T04:18:34.780Z,17.09
2022-11-23T04:18:56.461Z,17.11
2022-11-23T04:19:18.089Z,17.05
2022-11-23T04:19:40.682Z,17.05
2022-11-23T04:20:03.461Z,17.06
2022-11-23T04:20:25.297Z,17.08
2022-11-23T04:20:46.882Z,17.08
2022-11-23T04:21:08.522Z,17.08
2022-11-23T04:21:31.139Z,17.03
2022-11-23T04:21:53.199Z,17.06
2022-11-23T04:22:15.933Z,17.09
2022-11-23T04:22:38.478Z,17.00
2022-11-23T04:23:00.405Z,16.98
2022-11-23T04:23:25.028Z,16.99
2022-11-23T04:23:46.729Z,16.98
2022-11-23T04:24:09.814Z,16.98
2022-11-23T04:24:33.483Z,17.01
2022-11-23T04:24:58.656Z,16.99
2022-11-23T04:25:20.553Z,17.00
2022-11-23T04:25:45.133Z,17.03
2022-11-23T04:26:08.490Z,17.04
2022-11-23T04:26:33.742Z,17.02
2022-11-23T04:26:56.415Z,16.93
2022-11-23T04:27:19.381Z,16.97
2022-11-23T04:27:43.245Z,16.98
2022-11-23T04:28:04.891Z,17.01
2022-11-23T04:28:26.517Z,17.00
2022-11-23T04:28:48.343Z,16.94
2022-11-23T04:29:11.312Z,16.96
2022-11-23T04:29:36.435Z,16.97
2022-11-23T04:29:58.006Z,16.97
2022-11-23T04:30:19.800Z,16.98
2022-11-23T04:30:42.455Z,16.99
2022-11-23T04:31:04.750Z,16.95
2022-11-23T04:31:35.482Z,16.99
2022-11-23T04:32:05.946Z,16.96
2022-11-23T04:32:28.128Z,16.99
2022-11-23T04:32:49.842Z,17.01
2022-11-23T04:33:11.495Z,17.01
2022-11-23T04:33:34.808Z,16.90
2022-11-23T04:33:56.763Z,16.95
2022-11-23T04:34:20.111Z,16.97
2022-11-23T04:34:43.831Z,17.01
2022-11-23T04:35:08.143Z,17.04
2022-11-23T04:35:31.535Z,17.05
2022-11-23T04:35:53.473Z,17.07
2022-11-23T04:36:15.275Z,17.06
2022-11-23T04:36:37.552Z,17.07
2022-11-23T04:37:01.378Z,17.05
2022-11-23T04:37:28.988Z,17.05
2022-11-23T04:37:50.836Z,17.06
2022-11-23T04:38:13.634Z,17.09
2022-11-23T04:38:38.129Z,17.03
2022-11-23T04:38:59.814Z,17.03
2022-11-23T04:39:30.375Z,17.04
2022-11-23T04:40:08.695Z,16.99
2022-11-23T04:40:35.594Z,16.90
2022-11-23T04:40:58.418Z,16.93
2022-11-23T04:41:20.393Z,16.87
2022-11-23T04:41:43.066Z,16.90
2022-11-23T04:42:04.999Z,16.92
2022-11-23T04:42:28.190Z,16.97
2022-11-23T04:43:00.234Z,16.97
2022-11-23T04:43:24.993Z,16.92
2022-11-23T04:43:47.550Z,16.97
2022-11-23T04:44:09.436Z,16.96
2022-11-23T04:44:31.242Z,16.94
2022-11-23T04:44:58.382Z,16.96
2022-11-23T04:45:20.071Z,16.99
2022-11-23T04:45:42.089Z,16.99
2022-11-23T04:46:11.499Z,17.02
2022-11-23T04:46:35.593Z,17.02
2022-11-23T04:47:02.369Z,17.04
2022-11-23T04:47:24.104Z,16.99
2022-11-23T04:47:46.642Z,17.00
2022-11-23T04:48:10.751Z,17.00
2022-11-23T04:48:32.941Z,16.98
2022-11-23T04:48:54.514Z,16.87
2022-11-23T04:49:16.214Z,16.90
2022-11-23T04:49:39.601Z,16.93
2022-11-23T04:50:01.298Z,16.94
2022-11-23T04:50:23.334Z,16.94
2022-11-23T04:50:53.067Z,16.90
2022-11-23T04:51:24.006Z,16.92
2022-11-23T04:51:46.437Z,16.93
2022-11-23T04:52:09.823Z,16.96
2022-11-23T04:52:40.044Z,16.97
2022-11-23T04:53:08.272Z,17.00
2022-11-23T04:53:36.067Z,16.98
2022-11-23T04:53:57.706Z,17.03
2022-11-23T04:54:22.723Z,17.03
2022-11-23T04:54:49.734Z,17.03
2022-11-23T04:55:11.512Z,17.02
2022-11-23T04:55:42.536Z,17.03
2022-11-23T04:56:05.986Z,17.04
2022-11-23T04:56:31.771Z,17.04
2022-11-23T04:56:54.085Z,16.86
2022-11-23T04:57:16.668Z,16.95
2022-11-23T04:57:39.959Z,16.99
2022-11-23T04:58:03.117Z,17.00
2022-11-23T04:58:30.308Z,16.96
2022-11-23T04:58:56.876Z,17.05
2022-11-23T04:59:19.565Z,17.05
2022-11-23T04:59:41.249Z,17.04
2022-11-23T05:00:03.645Z,17.01
2022-11-23T05:00:29.485Z,16.96
2022-11-23T05:00:52.372Z,16.94
2022-11-23T05:01:14.177Z,16.85
2022-11-23T05:01:56.847Z,16.93
2022-11-23T05:02:37.178Z,16.94
2022-11-23T05:03:13.062Z,16.93
2022-11-23T05:03:37.271Z,16.95
2022-11-23T05:04:01.964Z,16.95
2022-11-23T05:04:23.597Z,16.96
2022-11-23T05:04:45.427Z,16.94
2022-11-23T05:05:09.938Z,16.96
2022-11-23T05:05:31.510Z,16.90
2022-11-23T05:05:54.077Z,16.92
2022-11-23T05:06:17.091Z,16.93
2022-11-23T05:06:38.695Z,16.94